Current Conditions - Area Ports

 

CYWH - Victoria Harbour, British Columbia, Canada
Distance from station: WSW 10km
Updated: 08/16/2018 9:00pm
NOT Current
Few Clouds
Few Clouds
 Wind from SW
Wind: SW 17 km/h
Temperature: 16°C
Dew Point: 11°C
Humidity: 72%
Barometer: 1017.6 hPa
Clouds: Few Clouds
Visibility: 16 km
Cloud details: Few Clouds 7315 m
2018/08/17 04:00 CYWH 170400Z 22009KT 10SM FEW240 16/11 A3005 RMK CI2 FU LAST STFD OBS/NEXT 171300 UTC SLP178
KFHR - Friday Harbor, Washington, USA
Distance from station: ENE 19km
Updated: 08/17/2018 5:02am
Mist, Few clouds
Mist, Few clouds
 Wind from calm
Wind: Calm
Temperature: 10°C
Dew Point: 8°C
Humidity: 88%
Barometer: 1021.3 hPa
Summary: Mist
Clouds: Few Clouds
Visibility: 8 km
Cloud details: Few Clouds 122 m
2018/08/17 12:02 KFHR 171202Z AUTO 00000KT 5SM BR FEW004 10/08 A3016 RMK AO2 T01000083 TSNO
 
KORS - Eastsound/Orcas, Washington, USA
Distance from station: NE 38km
Updated: 08/17/2018 5:35am
Clear
Clear
 Wind from S
Wind: S 13 km/h
Temperature: 13°C
Dew Point: 11°C
Humidity: 88%
Barometer: 1020.7 hPa
Clouds: Clear
Visibility: 13 km
2018/08/17 12:35 KORS 171235Z AUTO 17007KT 8SM CLR 13/11 A3014 RMK AO2
KNUW - Whidbey Is. Nas, Washington, USA
Distance from station: ESE 47km
Updated: 08/17/2018 4:56am
Partly cloudy
Partly cloudy
 Wind from S
Wind: S 13 km/h
Temperature: 13°C
Dew Point: 11°C
Humidity: 88%
Barometer: 1023 hPa
Clouds: Partly cloudy
Visibility: 14 km
Cloud details: Few Clouds 610 m
Few Clouds 4877 m
Partly cloudy 7620 m
2018/08/17 11:56 KNUW 171156Z 19007KT 9SM FEW020 FEW160 SCT250 13/11 A3021 RMK AO2 SLP227 T01330106 10139 20133 51006 $
 
CWEZ - Saturna Isl (map, British Columbia, Canada
Distance from station: NNE 40km
Updated: 08/17/2018 5:00am

 
Temperature: 13°C
Dew Point: 12°C
Humidity: 94%
2018/08/17 12:00 CWEZ 171200Z AUTO 13/12 RMK AO1 SLP204 T01250115 51009
CYCD - Nanaimo Airport, British Columbia, Canada
Distance from station: NW 80km
Updated: 08/16/2018 9:00pm
NOT Current
Clear
Clear
 Wind from SE
Wind: SE 6 km/h
Temperature: 20°C
Dew Point: 15°C
Humidity: 73%
Barometer: 1017.6 hPa
Clouds: Clear
Visibility: 32 km
2018/08/17 04:00 CYCD 170400Z 14003KT 20SM SKC 20/15 A3005 RMK FU LAST STFD OBS/NEXT 171300Z SLP176 DENSITY ALT 600FT
 
CWVF - Sand Heads (ls), British Columbia, Canada
Distance from station: N 72km
Updated: 08/17/2018 5:00am

 Wind from E
Wind: E 19 km/h
Temperature: 14°C
Dew Point: 13°C
Humidity: 94%
2018/08/17 12:00 CWVF 171200Z AUTO 10010KT 14/13 RMK AO1 T01430131
CWQK - Race Rocks Autob, British Columbia, Canada
Distance from station: SW 26km
Updated: 08/17/2018 5:00am

 Wind from W
Wind: W 39 km/h
Temperature: 13°C
Dew Point: 11°C
Humidity: 88%
2018/08/17 12:00 CWQK 171200Z AUTO 28021KT 13/11 RMK AO1 PK WND 28026/1131 SLP211 T01270108 51011
 
CWSP - Sheringham Autob, British Columbia, Canada
Distance from station: W 49km
Updated: 08/17/2018 5:00am

 Wind from WNW
Wind: WNW 30 km/h
2018/08/17 12:00 CWSP 171200Z AUTO 29016KT RMK AO1 PK WND 29021/1132 51009